sensor_id;sensor_type;location;lat;lon;timestamp;P1;durP1;ratioP1;P2;durP2;ratioP2
15614;SDS011;7907;51.368;6.730;2022-10-16T00:01:14;8.32;;;3.08;;
15614;SDS011;7907;51.368;6.730;2022-10-16T00:03:43;2.13;;;1.37;;
15614;SDS011;7907;51.368;6.730;2022-10-16T00:06:12;1.98;;;1.70;;
15614;SDS011;7907;51.368;6.730;2022-10-16T00:08:39;4.28;;;1.83;;
15614;SDS011;7907;51.368;6.730;2022-10-16T00:11:09;5.60;;;1.92;;
15614;SDS011;7907;51.368;6.730;2022-10-16T00:13:38;2.67;;;2.22;;
15614;SDS011;7907;51.368;6.730;2022-10-16T00:16:07;2.40;;;1.95;;
15614;SDS011;7907;51.368;6.730;2022-10-16T00:18:35;2.70;;;1.73;;
15614;SDS011;7907;51.368;6.730;2022-10-16T00:21:04;2.00;;;1.80;;
15614;SDS011;7907;51.368;6.730;2022-10-16T00:23:32;2.55;;;1.83;;
15614;SDS011;7907;51.368;6.730;2022-10-16T00:26:00;2.08;;;1.88;;
15614;SDS011;7907;51.368;6.730;2022-10-16T00:28:30;2.55;;;1.95;;
15614;SDS011;7907;51.368;6.730;2022-10-16T00:30:58;2.00;;;1.80;;
15614;SDS011;7907;51.368;6.730;2022-10-16T00:33:25;2.10;;;1.70;;
15614;SDS011;7907;51.368;6.730;2022-10-16T00:35:52;3.10;;;1.90;;
15614;SDS011;7907;51.368;6.730;2022-10-16T00:38:19;3.33;;;1.88;;
15614;SDS011;7907;51.368;6.730;2022-10-16T00:40:46;2.65;;;1.83;;
15614;SDS011;7907;51.368;6.730;2022-10-16T00:46:04;2.42;;;2.00;;
15614;SDS011;7907;51.368;6.730;2022-10-16T00:48:36;3.35;;;2.17;;
15614;SDS011;7907;51.368;6.730;2022-10-16T00:51:04;2.15;;;1.95;;
15614;SDS011;7907;51.368;6.730;2022-10-16T00:53:33;3.47;;;2.40;;
15614;SDS011;7907;51.368;6.730;2022-10-16T00:56:02;4.38;;;2.83;;
15614;SDS011;7907;51.368;6.730;2022-10-16T00:58:29;4.60;;;2.83;;
15614;SDS011;7907;51.368;6.730;2022-10-16T01:00:58;4.55;;;3.22;;
15614;SDS011;7907;51.368;6.730;2022-10-16T01:03:27;6.77;;;3.10;;
15614;SDS011;7907;51.368;6.730;2022-10-16T01:05:58;4.00;;;3.05;;
15614;SDS011;7907;51.368;6.730;2022-10-16T01:08:38;6.35;;;3.10;;
15614;SDS011;7907;51.368;6.730;2022-10-16T01:11:13;6.22;;;4.10;;
15614;SDS011;7907;51.368;6.730;2022-10-16T01:13:48;3.53;;;2.97;;
15614;SDS011;7907;51.368;6.730;2022-10-16T01:16:24;5.97;;;3.15;;
15614;SDS011;7907;51.368;6.730;2022-10-16T01:19:00;4.77;;;3.93;;
15614;SDS011;7907;51.368;6.730;2022-10-16T01:21:35;4.43;;;2.63;;
15614;SDS011;7907;51.368;6.730;2022-10-16T01:24:07;3.35;;;3.05;;
15614;SDS011;7907;51.368;6.730;2022-10-16T01:29:39;3.58;;;2.28;;
15614;SDS011;7907;51.368;6.730;2022-10-16T01:32:16;2.45;;;2.25;;
15614;SDS011;7907;51.368;6.730;2022-10-16T01:34:47;3.38;;;2.55;;
15614;SDS011;7907;51.368;6.730;2022-10-16T01:37:20;3.30;;;2.10;;
15614;SDS011;7907;51.368;6.730;2022-10-16T01:39:53;2.90;;;1.95;;
15614;SDS011;7907;51.368;6.730;2022-10-16T01:42:28;2.92;;;2.17;;
15614;SDS011;7907;51.368;6.730;2022-10-16T01:44:59;4.72;;;2.72;;
15614;SDS011;7907;51.368;6.730;2022-10-16T01:47:29;2.50;;;2.28;;
15614;SDS011;7907;51.368;6.730;2022-10-16T01:49:57;6.13;;;2.45;;
15614;SDS011;7907;51.368;6.730;2022-10-16T01:52:26;4.83;;;3.03;;
15614;SDS011;7907;51.368;6.730;2022-10-16T01:54:55;6.00;;;3.45;;
15614;SDS011;7907;51.368;6.730;2022-10-16T01:57:27;4.72;;;3.70;;
15614;SDS011;7907;51.368;6.730;2022-10-16T01:59:56;6.18;;;3.92;;
15614;SDS011;7907;51.368;6.730;2022-10-16T02:02:28;5.57;;;2.90;;
15614;SDS011;7907;51.368;6.730;2022-10-16T02:04:58;4.88;;;3.47;;
15614;SDS011;7907;51.368;6.730;2022-10-16T02:07:31;3.08;;;2.03;;
15614;SDS011;7907;51.368;6.730;2022-10-16T02:09:59;2.50;;;2.03;;
15614;SDS011;7907;51.368;6.730;2022-10-16T02:12:28;2.50;;;1.90;;
15614;SDS011;7907;51.368;6.730;2022-10-16T02:14:58;2.10;;;1.63;;
15614;SDS011;7907;51.368;6.730;2022-10-16T02:17:26;1.80;;;1.50;;
15614;SDS011;7907;51.368;6.730;2022-10-16T02:19:54;4.30;;;1.55;;
15614;SDS011;7907;51.368;6.730;2022-10-16T02:22:24;1.42;;;1.30;;
15614;SDS011;7907;51.368;6.730;2022-10-16T02:24:54;3.42;;;1.33;;
15614;SDS011;7907;51.368;6.730;2022-10-16T02:27:26;2.20;;;1.00;;
15614;SDS011;7907;51.368;6.730;2022-10-16T02:30:00;1.88;;;1.25;;
15614;SDS011;7907;51.368;6.730;2022-10-16T02:32:36;2.38;;;1.30;;
15614;SDS011;7907;51.368;6.730;2022-10-16T02:35:07;1.83;;;1.15;;
15614;SDS011;7907;51.368;6.730;2022-10-16T02:37:35;1.10;;;1.00;;
15614;SDS011;7907;51.368;6.730;2022-10-16T02:40:05;2.70;;;0.90;;
15614;SDS011;7907;51.368;6.730;2022-10-16T02:42:35;1.10;;;0.83;;
15614;SDS011;7907;51.368;6.730;2022-10-16T02:45:03;0.73;;;0.73;;
15614;SDS011;7907;51.368;6.730;2022-10-16T02:47:31;1.00;;;0.70;;
15614;SDS011;7907;51.368;6.730;2022-10-16T02:49:58;1.88;;;1.23;;
15614;SDS011;7907;51.368;6.730;2022-10-16T02:52:25;3.43;;;0.80;;
15614;SDS011;7907;51.368;6.730;2022-10-16T02:54:52;0.93;;;0.73;;
15614;SDS011;7907;51.368;6.730;2022-10-16T02:57:19;0.70;;;0.70;;
15614;SDS011;7907;51.368;6.730;2022-10-16T02:59:48;0.50;;;0.50;;
15614;SDS011;7907;51.368;6.730;2022-10-16T03:02:15;1.05;;;0.63;;
15614;SDS011;7907;51.368;6.730;2022-10-16T03:04:42;1.48;;;1.02;;
15614;SDS011;7907;51.368;6.730;2022-10-16T03:07:10;1.83;;;0.63;;
15614;SDS011;7907;51.368;6.730;2022-10-16T03:09:37;1.23;;;0.73;;
15614;SDS011;7907;51.368;6.730;2022-10-16T03:12:04;2.03;;;0.77;;
15614;SDS011;7907;51.368;6.730;2022-10-16T03:14:31;1.23;;;1.08;;
15614;SDS011;7907;51.368;6.730;2022-10-16T03:17:00;1.50;;;0.65;;
15614;SDS011;7907;51.368;6.730;2022-10-16T03:19:27;1.00;;;0.73;;
15614;SDS011;7907;51.368;6.730;2022-10-16T03:21:55;1.05;;;0.75;;
15614;SDS011;7907;51.368;6.730;2022-10-16T03:24:22;1.73;;;0.47;;
15614;SDS011;7907;51.368;6.730;2022-10-16T03:26:49;1.10;;;0.85;;
15614;SDS011;7907;51.368;6.730;2022-10-16T03:29:16;0.60;;;0.60;;
15614;SDS011;7907;51.368;6.730;2022-10-16T03:31:43;0.98;;;0.52;;
15614;SDS011;7907;51.368;6.730;2022-10-16T03:34:12;2.00;;;0.63;;
15614;SDS011;7907;51.368;6.730;2022-10-16T03:36:39;1.33;;;0.77;;
15614;SDS011;7907;51.368;6.730;2022-10-16T03:39:06;1.00;;;0.90;;
15614;SDS011;7907;51.368;6.730;2022-10-16T03:41:33;1.58;;;0.98;;
15614;SDS011;7907;51.368;6.730;2022-10-16T03:44:00;0.60;;;0.40;;
15614;SDS011;7907;51.368;6.730;2022-10-16T03:46:27;1.17;;;0.60;;
15614;SDS011;7907;51.368;6.730;2022-10-16T03:48:54;0.47;;;0.47;;
15614;SDS011;7907;51.368;6.730;2022-10-16T03:51:23;1.10;;;0.70;;
15614;SDS011;7907;51.368;6.730;2022-10-16T03:53:50;0.60;;;0.60;;
15614;SDS011;7907;51.368;6.730;2022-10-16T03:56:18;1.00;;;0.80;;
15614;SDS011;7907;51.368;6.730;2022-10-16T03:58:45;0.98;;;0.80;;
15614;SDS011;7907;51.368;6.730;2022-10-16T04:01:12;0.88;;;0.80;;
15614;SDS011;7907;51.368;6.730;2022-10-16T04:03:39;0.60;;;0.52;;
15614;SDS011;7907;51.368;6.730;2022-10-16T04:06:06;0.90;;;0.70;;
15614;SDS011;7907;51.368;6.730;2022-10-16T04:08:35;0.80;;;0.80;;
15614;SDS011;7907;51.368;6.730;2022-10-16T04:11:04;2.03;;;0.73;;
15614;SDS011;7907;51.368;6.730;2022-10-16T04:13:31;0.95;;;0.63;;
15614;SDS011;7907;51.368;6.730;2022-10-16T04:15:58;1.10;;;0.70;;
15614;SDS011;7907;51.368;6.730;2022-10-16T04:18:25;0.70;;;0.70;;
15614;SDS011;7907;51.368;6.730;2022-10-16T04:20:53;0.47;;;0.47;;
15614;SDS011;7907;51.368;6.730;2022-10-16T04:23:20;0.88;;;0.60;;
15614;SDS011;7907;51.368;6.730;2022-10-16T04:25:49;0.60;;;0.50;;
15614;SDS011;7907;51.368;6.730;2022-10-16T04:28:16;1.40;;;0.70;;
15614;SDS011;7907;51.368;6.730;2022-10-16T04:30:44;1.17;;;0.95;;
15614;SDS011;7907;51.368;6.730;2022-10-16T04:33:11;0.88;;;0.85;;
15614;SDS011;7907;51.368;6.730;2022-10-16T04:35:38;0.73;;;0.70;;
15614;SDS011;7907;51.368;6.730;2022-10-16T04:38:05;0.35;;;0.35;;
15614;SDS011;7907;51.368;6.730;2022-10-16T04:40:32;2.70;;;0.52;;
15614;SDS011;7907;51.368;6.730;2022-10-16T04:43:02;3.42;;;0.65;;
15614;SDS011;7907;51.368;6.730;2022-10-16T04:45:30;1.30;;;0.70;;
15614;SDS011;7907;51.368;6.730;2022-10-16T04:47:57;0.60;;;0.47;;
15614;SDS011;7907;51.368;6.730;2022-10-16T04:50:24;0.95;;;0.75;;
15614;SDS011;7907;51.368;6.730;2022-10-16T04:52:51;0.80;;;0.50;;
15614;SDS011;7907;51.368;6.730;2022-10-16T04:55:18;5.68;;;1.23;;
15614;SDS011;7907;51.368;6.730;2022-10-16T04:57:45;1.30;;;0.80;;
15614;SDS011;7907;51.368;6.730;2022-10-16T05:00:14;1.25;;;0.43;;
15614;SDS011;7907;51.368;6.730;2022-10-16T05:02:41;0.90;;;0.40;;
15614;SDS011;7907;51.368;6.730;2022-10-16T05:05:08;0.60;;;0.60;;
15614;SDS011;7907;51.368;6.730;2022-10-16T05:07:35;0.90;;;0.50;;
15614;SDS011;7907;51.368;6.730;2022-10-16T05:10:02;0.60;;;0.57;;
15614;SDS011;7907;51.368;6.730;2022-10-16T05:12:30;0.80;;;0.80;;
15614;SDS011;7907;51.368;6.730;2022-10-16T05:14:57;0.60;;;0.50;;
15614;SDS011;7907;51.368;6.730;2022-10-16T05:17:26;0.93;;;0.80;;
15614;SDS011;7907;51.368;6.730;2022-10-16T05:19:53;0.90;;;0.70;;
15614;SDS011;7907;51.368;6.730;2022-10-16T05:22:20;1.02;;;0.77;;
15614;SDS011;7907;51.368;6.730;2022-10-16T05:24:47;0.47;;;0.47;;
15614;SDS011;7907;51.368;6.730;2022-10-16T05:27:14;0.45;;;0.45;;
15614;SDS011;7907;51.368;6.730;2022-10-16T05:29:44;0.60;;;0.38;;
15614;SDS011;7907;51.368;6.730;2022-10-16T05:32:12;0.50;;;0.50;;
15614;SDS011;7907;51.368;6.730;2022-10-16T05:34:40;0.50;;;0.50;;
15614;SDS011;7907;51.368;6.730;2022-10-16T05:37:08;0.77;;;0.60;;
15614;SDS011;7907;51.368;6.730;2022-10-16T05:39:35;0.60;;;0.50;;
15614;SDS011;7907;51.368;6.730;2022-10-16T05:42:02;0.57;;;0.50;;
15614;SDS011;7907;51.368;6.730;2022-10-16T05:44:29;1.50;;;0.93;;
15614;SDS011;7907;51.368;6.730;2022-10-16T05:46:56;0.70;;;0.70;;
15614;SDS011;7907;51.368;6.730;2022-10-16T05:49:24;0.57;;;0.57;;
15614;SDS011;7907;51.368;6.730;2022-10-16T05:51:52;0.73;;;0.47;;
15614;SDS011;7907;51.368;6.730;2022-10-16T05:54:19;0.85;;;0.68;;
15614;SDS011;7907;51.368;6.730;2022-10-16T05:56:46;3.60;;;1.20;;
15614;SDS011;7907;51.368;6.730;2022-10-16T05:59:14;0.50;;;0.50;;
15614;SDS011;7907;51.368;6.730;2022-10-16T06:01:41;1.15;;;0.85;;
15614;SDS011;7907;51.368;6.730;2022-10-16T06:04:08;0.60;;;0.60;;
15614;SDS011;7907;51.368;6.730;2022-10-16T06:06:35;1.65;;;0.63;;
15614;SDS011;7907;51.368;6.730;2022-10-16T06:09:04;1.33;;;0.80;;
15614;SDS011;7907;51.368;6.730;2022-10-16T06:11:32;1.50;;;0.80;;
15614;SDS011;7907;51.368;6.730;2022-10-16T06:14:00;0.85;;;0.82;;
15614;SDS011;7907;51.368;6.730;2022-10-16T06:16:31;1.00;;;0.60;;
15614;SDS011;7907;51.368;6.730;2022-10-16T06:18:59;0.52;;;0.52;;
15614;SDS011;7907;51.368;6.730;2022-10-16T06:21:27;0.50;;;0.50;;
15614;SDS011;7907;51.368;6.730;2022-10-16T06:23:55;2.78;;;1.00;;
15614;SDS011;7907;51.368;6.730;2022-10-16T06:26:25;0.80;;;0.50;;
15614;SDS011;7907;51.368;6.730;2022-10-16T06:28:53;1.17;;;0.68;;
15614;SDS011;7907;51.368;6.730;2022-10-16T06:31:21;0.80;;;0.80;;
15614;SDS011;7907;51.368;6.730;2022-10-16T06:33:52;0.70;;;0.70;;
15614;SDS011;7907;51.368;6.730;2022-10-16T06:36:21;1.50;;;0.70;;
15614;SDS011;7907;51.368;6.730;2022-10-16T06:38:49;2.83;;;0.90;;
15614;SDS011;7907;51.368;6.730;2022-10-16T06:41:17;0.88;;;0.70;;
15614;SDS011;7907;51.368;6.730;2022-10-16T06:43:48;0.60;;;0.60;;
15614;SDS011;7907;51.368;6.730;2022-10-16T06:46:16;0.90;;;0.65;;
15614;SDS011;7907;51.368;6.730;2022-10-16T06:48:44;0.80;;;0.70;;
15614;SDS011;7907;51.368;6.730;2022-10-16T06:51:12;0.73;;;0.57;;
15614;SDS011;7907;51.368;6.730;2022-10-16T06:53:41;0.68;;;0.68;;
15614;SDS011;7907;51.368;6.730;2022-10-16T06:56:10;1.30;;;0.90;;
15614;SDS011;7907;51.368;6.730;2022-10-16T06:58:38;0.65;;;0.65;;
15614;SDS011;7907;51.368;6.730;2022-10-16T07:01:07;0.75;;;0.75;;
15614;SDS011;7907;51.368;6.730;2022-10-16T07:03:35;1.38;;;0.77;;
15614;SDS011;7907;51.368;6.730;2022-10-16T07:06:04;0.85;;;0.75;;
15614;SDS011;7907;51.368;6.730;2022-10-16T07:08:34;0.80;;;0.47;;
15614;SDS011;7907;51.368;6.730;2022-10-16T07:11:04;0.90;;;0.65;;
15614;SDS011;7907;51.368;6.730;2022-10-16T07:13:32;0.80;;;0.80;;
15614;SDS011;7907;51.368;6.730;2022-10-16T07:16:03;2.03;;;0.98;;
15614;SDS011;7907;51.368;6.730;2022-10-16T07:18:32;1.60;;;0.93;;
15614;SDS011;7907;51.368;6.730;2022-10-16T07:21:03;0.77;;;0.77;;
15614;SDS011;7907;51.368;6.730;2022-10-16T07:23:31;1.02;;;0.60;;
15614;SDS011;7907;51.368;6.730;2022-10-16T07:25:58;0.93;;;0.93;;
15614;SDS011;7907;51.368;6.730;2022-10-16T07:28:25;1.17;;;0.70;;
15614;SDS011;7907;51.368;6.730;2022-10-16T07:30:52;0.88;;;0.70;;
15614;SDS011;7907;51.368;6.730;2022-10-16T07:33:20;1.30;;;0.90;;
15614;SDS011;7907;51.368;6.730;2022-10-16T07:35:51;4.30;;;0.90;;
15614;SDS011;7907;51.368;6.730;2022-10-16T07:38:20;0.95;;;0.93;;
15614;SDS011;7907;51.368;6.730;2022-10-16T07:40:48;0.70;;;0.70;;
15614;SDS011;7907;51.368;6.730;2022-10-16T07:43:22;1.10;;;0.80;;
15614;SDS011;7907;51.368;6.730;2022-10-16T07:45:49;0.93;;;0.65;;
15614;SDS011;7907;51.368;6.730;2022-10-16T07:48:17;0.90;;;0.70;;
15614;SDS011;7907;51.368;6.730;2022-10-16T07:50:45;0.73;;;0.73;;
15614;SDS011;7907;51.368;6.730;2022-10-16T07:53:14;0.60;;;0.57;;
15614;SDS011;7907;51.368;6.730;2022-10-16T07:55:41;1.60;;;0.77;;
15614;SDS011;7907;51.368;6.730;2022-10-16T07:58:08;0.77;;;0.57;;
15614;SDS011;7907;51.368;6.730;2022-10-16T08:00:36;1.05;;;0.57;;
15614;SDS011;7907;51.368;6.730;2022-10-16T08:03:03;0.57;;;0.57;;
15614;SDS011;7907;51.368;6.730;2022-10-16T08:05:31;4.20;;;0.75;;
15614;SDS011;7907;51.368;6.730;2022-10-16T08:07:59;0.80;;;0.80;;
15614;SDS011;7907;51.368;6.730;2022-10-16T08:10:28;0.85;;;0.80;;
15614;SDS011;7907;51.368;6.730;2022-10-16T08:12:56;0.70;;;0.50;;
15614;SDS011;7907;51.368;6.730;2022-10-16T08:15:24;0.20;;;0.20;;
15614;SDS011;7907;51.368;6.730;2022-10-16T08:17:55;0.75;;;0.70;;
15614;SDS011;7907;51.368;6.730;2022-10-16T08:20:23;0.63;;;0.63;;
15614;SDS011;7907;51.368;6.730;2022-10-16T08:22:50;2.72;;;1.02;;
15614;SDS011;7907;51.368;6.730;2022-10-16T08:25:17;0.85;;;0.45;;
15614;SDS011;7907;51.368;6.730;2022-10-16T08:27:46;0.38;;;0.35;;
15614;SDS011;7907;51.368;6.730;2022-10-16T08:30:14;0.88;;;0.77;;
15614;SDS011;7907;51.368;6.730;2022-10-16T08:32:41;0.70;;;0.47;;
15614;SDS011;7907;51.368;6.730;2022-10-16T08:35:08;1.83;;;0.80;;
15614;SDS011;7907;51.368;6.730;2022-10-16T08:37:36;0.30;;;0.30;;
15614;SDS011;7907;51.368;6.730;2022-10-16T08:40:10;1.50;;;0.40;;
15614;SDS011;7907;51.368;6.730;2022-10-16T08:42:50;0.35;;;0.20;;
15614;SDS011;7907;51.368;6.730;2022-10-16T08:45:34;0.35;;;0.22;;
15614;SDS011;7907;51.368;6.730;2022-10-16T08:48:13;0.40;;;0.40;;
15614;SDS011;7907;51.368;6.730;2022-10-16T08:50:46;1.05;;;0.57;;
15614;SDS011;7907;51.368;6.730;2022-10-16T08:53:17;0.80;;;0.65;;
15614;SDS011;7907;51.368;6.730;2022-10-16T08:55:49;4.20;;;0.50;;
15614;SDS011;7907;51.368;6.730;2022-10-16T08:58:20;0.77;;;0.60;;
15614;SDS011;7907;51.368;6.730;2022-10-16T09:00:50;1.90;;;0.80;;
15614;SDS011;7907;51.368;6.730;2022-10-16T09:03:32;2.60;;;0.52;;
15614;SDS011;7907;51.368;6.730;2022-10-16T09:06:14;0.60;;;0.40;;
15614;SDS011;7907;51.368;6.730;2022-10-16T09:08:56;0.35;;;0.32;;
15614;SDS011;7907;51.368;6.730;2022-10-16T09:11:33;1.00;;;0.50;;
15614;SDS011;7907;51.368;6.730;2022-10-16T09:14:14;0.70;;;0.68;;
15614;SDS011;7907;51.368;6.730;2022-10-16T09:17:03;0.60;;;0.50;;
15614;SDS011;7907;51.368;6.730;2022-10-16T09:19:38;1.00;;;0.50;;
15614;SDS011;7907;51.368;6.730;2022-10-16T09:22:12;0.75;;;0.43;;
15614;SDS011;7907;51.368;6.730;2022-10-16T09:24:41;0.40;;;0.32;;
15614;SDS011;7907;51.368;6.730;2022-10-16T09:27:08;1.00;;;0.70;;
15614;SDS011;7907;51.368;6.730;2022-10-16T09:29:39;0.70;;;0.70;;
15614;SDS011;7907;51.368;6.730;2022-10-16T09:32:08;0.30;;;0.10;;
15614;SDS011;7907;51.368;6.730;2022-10-16T09:34:39;0.45;;;0.32;;
15614;SDS011;7907;51.368;6.730;2022-10-16T09:37:12;0.38;;;0.22;;
15614;SDS011;7907;51.368;6.730;2022-10-16T09:39:46;0.30;;;0.20;;
15614;SDS011;7907;51.368;6.730;2022-10-16T09:42:15;0.50;;;0.30;;
15614;SDS011;7907;51.368;6.730;2022-10-16T09:44:48;0.90;;;0.20;;
15614;SDS011;7907;51.368;6.730;2022-10-16T09:47:19;0.40;;;0.30;;
15614;SDS011;7907;51.368;6.730;2022-10-16T09:49:52;0.00;;;0.00;;
15614;SDS011;7907;51.368;6.730;2022-10-16T09:52:23;0.70;;;0.50;;
15614;SDS011;7907;51.368;6.730;2022-10-16T09:54:52;1.85;;;0.38;;
15614;SDS011;7907;51.368;6.730;2022-10-16T09:57:21;0.80;;;0.30;;
15614;SDS011;7907;51.368;6.730;2022-10-16T09:59:50;0.30;;;0.20;;
15614;SDS011;7907;51.368;6.730;2022-10-16T10:02:19;0.30;;;0.20;;
15614;SDS011;7907;51.368;6.730;2022-10-16T10:04:55;0.10;;;0.10;;
15614;SDS011;7907;51.368;6.730;2022-10-16T10:07:24;0.28;;;0.17;;
15614;SDS011;7907;51.368;6.730;2022-10-16T10:09:53;0.95;;;0.22;;
15614;SDS011;7907;51.368;6.730;2022-10-16T10:12:23;0.10;;;0.10;;
15614;SDS011;7907;51.368;6.730;2022-10-16T10:14:53;0.50;;;0.30;;
15614;SDS011;7907;51.368;6.730;2022-10-16T10:17:23;0.45;;;0.25;;
15614;SDS011;7907;51.368;6.730;2022-10-16T10:19:52;0.93;;;0.20;;
15614;SDS011;7907;51.368;6.730;2022-10-16T10:22:25;1.58;;;0.60;;
15614;SDS011;7907;51.368;6.730;2022-10-16T10:24:56;0.80;;;0.37;;
15614;SDS011;7907;51.368;6.730;2022-10-16T10:27:27;0.10;;;0.10;;
15614;SDS011;7907;51.368;6.730;2022-10-16T10:30:02;0.65;;;0.32;;
15614;SDS011;7907;51.368;6.730;2022-10-16T10:32:39;0.40;;;0.32;;
15614;SDS011;7907;51.368;6.730;2022-10-16T10:35:14;0.10;;;0.10;;
15614;SDS011;7907;51.368;6.730;2022-10-16T10:37:49;0.20;;;0.20;;
15614;SDS011;7907;51.368;6.730;2022-10-16T10:40:29;0.20;;;0.20;;
15614;SDS011;7907;51.368;6.730;2022-10-16T10:43:07;0.35;;;0.30;;
15614;SDS011;7907;51.368;6.730;2022-10-16T10:45:43;0.30;;;0.30;;
15614;SDS011;7907;51.368;6.730;2022-10-16T10:48:25;1.90;;;0.40;;
15614;SDS011;7907;51.368;6.730;2022-10-16T10:51:08;0.60;;;0.40;;
15614;SDS011;7907;51.368;6.730;2022-10-16T10:53:41;0.47;;;0.30;;
15614;SDS011;7907;51.368;6.730;2022-10-16T10:56:20;0.30;;;0.30;;
15614;SDS011;7907;51.368;6.730;2022-10-16T11:02:15;0.60;;;0.50;;
15614;SDS011;7907;51.368;6.730;2022-10-16T11:07:44;0.60;;;0.50;;
15614;SDS011;7907;51.368;6.730;2022-10-16T11:10:16;1.33;;;0.22;;
15614;SDS011;7907;51.368;6.730;2022-10-16T11:12:48;0.10;;;0.10;;
15614;SDS011;7907;51.368;6.730;2022-10-16T11:15:19;4.90;;;0.40;;
15614;SDS011;7907;51.368;6.730;2022-10-16T11:17:53;3.60;;;0.30;;
15614;SDS011;7907;51.368;6.730;2022-10-16T11:20:25;0.20;;;0.20;;
15614;SDS011;7907;51.368;6.730;2022-10-16T11:22:56;1.30;;;0.30;;
15614;SDS011;7907;51.368;6.730;2022-10-16T11:25:28;0.30;;;0.20;;
15614;SDS011;7907;51.368;6.730;2022-10-16T11:27:58;0.75;;;0.65;;
15614;SDS011;7907;51.368;6.730;2022-10-16T11:30:29;0.70;;;0.40;;
15614;SDS011;7907;51.368;6.730;2022-10-16T11:33:21;1.20;;;0.22;;
15614;SDS011;7907;51.368;6.730;2022-10-16T11:35:58;0.10;;;0.10;;
15614;SDS011;7907;51.368;6.730;2022-10-16T11:38:31;0.38;;;0.32;;
15614;SDS011;7907;51.368;6.730;2022-10-16T11:41:02;1.67;;;0.68;;
15614;SDS011;7907;51.368;6.730;2022-10-16T11:43:45;2.70;;;0.30;;
15614;SDS011;7907;51.368;6.730;2022-10-16T11:46:20;1.30;;;0.30;;
15614;SDS011;7907;51.368;6.730;2022-10-16T11:48:54;1.23;;;0.50;;
15614;SDS011;7907;51.368;6.730;2022-10-16T11:51:31;0.60;;;0.40;;
15614;SDS011;7907;51.368;6.730;2022-10-16T11:54:04;0.20;;;0.20;;
15614;SDS011;7907;51.368;6.730;2022-10-16T11:56:41;0.20;;;0.20;;
15614;SDS011;7907;51.368;6.730;2022-10-16T11:59:13;0.25;;;0.25;;
15614;SDS011;7907;51.368;6.730;2022-10-16T12:01:47;1.75;;;0.60;;
15614;SDS011;7907;51.368;6.730;2022-10-16T12:04:21;1.53;;;0.70;;
15614;SDS011;7907;51.368;6.730;2022-10-16T12:06:55;0.28;;;0.25;;
15614;SDS011;7907;51.368;6.730;2022-10-16T12:09:26;0.30;;;0.20;;
15614;SDS011;7907;51.368;6.730;2022-10-16T12:11:55;0.20;;;0.17;;
15614;SDS011;7907;51.368;6.730;2022-10-16T12:14:38;2.00;;;0.20;;
15614;SDS011;7907;51.368;6.730;2022-10-16T12:17:23;0.32;;;0.32;;
15614;SDS011;7907;51.368;6.730;2022-10-16T12:20:00;1.60;;;0.30;;
15614;SDS011;7907;51.368;6.730;2022-10-16T12:22:47;0.97;;;0.50;;
15614;SDS011;7907;51.368;6.730;2022-10-16T12:25:20;0.60;;;0.20;;
15614;SDS011;7907;51.368;6.730;2022-10-16T12:27:57;1.90;;;1.02;;
15614;SDS011;7907;51.368;6.730;2022-10-16T12:30:28;0.10;;;0.10;;
15614;SDS011;7907;51.368;6.730;2022-10-16T12:32:57;0.20;;;0.10;;
15614;SDS011;7907;51.368;6.730;2022-10-16T12:35:29;0.20;;;0.20;;
15614;SDS011;7907;51.368;6.730;2022-10-16T12:38:06;0.55;;;0.35;;
15614;SDS011;7907;51.368;6.730;2022-10-16T12:40:40;0.55;;;0.30;;
15614;SDS011;7907;51.368;6.730;2022-10-16T12:43:22;1.83;;;0.47;;
15614;SDS011;7907;51.368;6.730;2022-10-16T12:45:59;0.35;;;0.30;;
15614;SDS011;7907;51.368;6.730;2022-10-16T12:48:28;0.47;;;0.40;;
15614;SDS011;7907;51.368;6.730;2022-10-16T12:50:57;1.50;;;0.30;;
15614;SDS011;7907;51.368;6.730;2022-10-16T12:53:37;0.20;;;0.20;;
15614;SDS011;7907;51.368;6.730;2022-10-16T12:56:08;0.10;;;0.10;;
15614;SDS011;7907;51.368;6.730;2022-10-16T13:01:34;1.50;;;0.40;;
15614;SDS011;7907;51.368;6.730;2022-10-16T13:04:14;0.40;;;0.20;;
15614;SDS011;7907;51.368;6.730;2022-10-16T13:07:06;0.40;;;0.32;;
15614;SDS011;7907;51.368;6.730;2022-10-16T13:09:52;0.20;;;0.10;;
15614;SDS011;7907;51.368;6.730;2022-10-16T13:12:34;0.60;;;0.43;;
15614;SDS011;7907;51.368;6.730;2022-10-16T13:15:29;1.80;;;0.63;;
15614;SDS011;7907;51.368;6.730;2022-10-16T13:18:13;0.75;;;0.35;;
15614;SDS011;7907;51.368;6.730;2022-10-16T13:20:52;0.60;;;0.20;;
15614;SDS011;7907;51.368;6.730;2022-10-16T13:23:33;0.40;;;0.40;;
15614;SDS011;7907;51.368;6.730;2022-10-16T13:26:10;0.25;;;0.10;;
15614;SDS011;7907;51.368;6.730;2022-10-16T13:28:45;0.80;;;0.52;;
15614;SDS011;7907;51.368;6.730;2022-10-16T13:31:14;1.80;;;0.32;;
15614;SDS011;7907;51.368;6.730;2022-10-16T13:33:46;0.20;;;0.20;;
15614;SDS011;7907;51.368;6.730;2022-10-16T13:36:18;0.40;;;0.22;;
15614;SDS011;7907;51.368;6.730;2022-10-16T13:38:49;0.20;;;0.20;;
15614;SDS011;7907;51.368;6.730;2022-10-16T13:41:27;1.90;;;0.28;;
15614;SDS011;7907;51.368;6.730;2022-10-16T13:43:54;0.30;;;0.30;;
15614;SDS011;7907;51.368;6.730;2022-10-16T13:46:24;1.07;;;0.20;;
15614;SDS011;7907;51.368;6.730;2022-10-16T13:48:57;0.20;;;0.10;;
15614;SDS011;7907;51.368;6.730;2022-10-16T13:51:26;0.70;;;0.10;;
15614;SDS011;7907;51.368;6.730;2022-10-16T13:53:56;0.10;;;0.10;;
15614;SDS011;7907;51.368;6.730;2022-10-16T13:56:25;0.40;;;0.40;;
15614;SDS011;7907;51.368;6.730;2022-10-16T13:58:59;0.50;;;0.40;;
15614;SDS011;7907;51.368;6.730;2022-10-16T14:01:28;0.20;;;0.10;;
15614;SDS011;7907;51.368;6.730;2022-10-16T14:04:00;2.50;;;0.28;;
15614;SDS011;7907;51.368;6.730;2022-10-16T14:06:33;1.00;;;0.20;;
15614;SDS011;7907;51.368;6.730;2022-10-16T14:09:05;0.10;;;0.10;;
15614;SDS011;7907;51.368;6.730;2022-10-16T14:11:33;0.45;;;0.20;;
15614;SDS011;7907;51.368;6.730;2022-10-16T14:14:05;0.40;;;0.20;;
15614;SDS011;7907;51.368;6.730;2022-10-16T14:16:36;1.10;;;0.22;;
15614;SDS011;7907;51.368;6.730;2022-10-16T14:19:13;0.40;;;0.22;;
15614;SDS011;7907;51.368;6.730;2022-10-16T14:21:45;0.73;;;0.60;;
15614;SDS011;7907;51.368;6.730;2022-10-16T14:24:21;4.47;;;0.47;;
15614;SDS011;7907;51.368;6.730;2022-10-16T14:26:52;2.60;;;0.28;;
15614;SDS011;7907;51.368;6.730;2022-10-16T14:29:21;0.45;;;0.25;;
15614;SDS011;7907;51.368;6.730;2022-10-16T14:31:54;0.30;;;0.30;;
15614;SDS011;7907;51.368;6.730;2022-10-16T14:34:23;0.55;;;0.20;;
15614;SDS011;7907;51.368;6.730;2022-10-16T14:36:52;0.30;;;0.20;;
15614;SDS011;7907;51.368;6.730;2022-10-16T14:39:24;0.03;;;0.03;;
15614;SDS011;7907;51.368;6.730;2022-10-16T14:41:54;0.33;;;0.33;;
15614;SDS011;7907;51.368;6.730;2022-10-16T14:44:25;2.40;;;0.53;;
15614;SDS011;7907;51.368;6.730;2022-10-16T14:46:55;1.65;;;0.20;;
15614;SDS011;7907;51.368;6.730;2022-10-16T14:49:24;0.80;;;0.55;;
15614;SDS011;7907;51.368;6.730;2022-10-16T14:51:53;0.80;;;0.30;;
15614;SDS011;7907;51.368;6.730;2022-10-16T14:54:20;3.60;;;0.40;;
15614;SDS011;7907;51.368;6.730;2022-10-16T14:56:50;1.30;;;0.20;;
15614;SDS011;7907;51.368;6.730;2022-10-16T14:59:19;1.30;;;0.60;;
15614;SDS011;7907;51.368;6.730;2022-10-16T15:01:52;0.35;;;0.20;;
15614;SDS011;7907;51.368;6.730;2022-10-16T15:04:20;1.90;;;0.68;;
15614;SDS011;7907;51.368;6.730;2022-10-16T15:06:47;1.00;;;0.30;;
15614;SDS011;7907;51.368;6.730;2022-10-16T15:09:15;1.25;;;0.47;;
15614;SDS011;7907;51.368;6.730;2022-10-16T15:11:42;0.50;;;0.50;;
15614;SDS011;7907;51.368;6.730;2022-10-16T15:14:12;1.95;;;0.60;;
15614;SDS011;7907;51.368;6.730;2022-10-16T15:16:40;2.63;;;0.50;;
15614;SDS011;7907;51.368;6.730;2022-10-16T15:19:07;0.90;;;0.20;;
15614;SDS011;7907;51.368;6.730;2022-10-16T15:21:34;9.90;;;0.50;;
15614;SDS011;7907;51.368;6.730;2022-10-16T15:24:01;0.40;;;0.30;;
15614;SDS011;7907;51.368;6.730;2022-10-16T15:26:28;1.65;;;0.38;;
15614;SDS011;7907;51.368;6.730;2022-10-16T15:28:57;3.37;;;1.10;;
15614;SDS011;7907;51.368;6.730;2022-10-16T15:31:25;1.50;;;1.00;;
15614;SDS011;7907;51.368;6.730;2022-10-16T15:33:53;0.30;;;0.30;;
15614;SDS011;7907;51.368;6.730;2022-10-16T15:36:26;1.73;;;0.57;;